Colonie, NY

5:40 PM EST on December 18, 2014 (GMT -0500)
South Colonie - Cook Park Area | Change Station
CLOSE
Current Station
Personal Weather Station
Location: Colonie, NY
Elevation: 318 ft
Nearby Weather Stations

Elev 318 ft 42.71 °N, 73.84 °W | Updated 3 seconds ago

Overcast
Overcast
34.3 °F
Feels Like 27 °F
N
8.3
Wind Variable Wind from NW
Gusts 12.1 mph

Today
High -- | Low -- °F
--% Chance of Precip.
Yesterday
High -- | Low -- °F
Precip. -- in
7:20 AM 4:23 PM
Waning Crescent, 12% visible
Pressure 29.95 in
Visibility 10.0 miles
Clouds Mostly Cloudy 2600 ft
Overcast 3500 ft
Windchill 27 °F
Dew Point 25 °F
Humidity 69%
Rainfall 0.06 in
Snow Depth Not available.
UV 0 out of 12
Pollen .10 out of 12
Air Quality Not available.
Flu Activity Not available.
METAR KALB 182151Z COR 29015G20KT 10SM BKN026 OVC035 02/M03 A2994 RMK AO2 PK WND 28026/2130 SLP141 OCNL BINOVC T00171033

More Conditions Fewer Conditions

Pressure 29.95 in
Visibility 10.0 miles
Clouds Mostly Cloudy 2600 ft
Overcast 3500 ft
Windchill 27 °F
Dew Point 25 °F
Humidity 69%
Rainfall 0.06 in
Snow Depth Not available.
UV 0 out of 12
Pollen .10 out of 12
Air Quality Not available.
Flu Activity Not available.
METAR KALB 182151Z COR 29015G20KT 10SM BKN026 OVC035 02/M03 A2994 RMK AO2 PK WND 28026/2130 SLP141 OCNL BINOVC T00171033

More Conditions Fewer Conditions

10-Day Weather Forecast

Almanac

Astronomy

Dec. 18, 2014 Rise Set
Actual Time
Civil Twilight
Nautical Twilight
Astronomical Twilight
Moon
Length of Visible Light
Length of Day
Tomorrow will be .
, % of the Moon is Illuminated

Today's Extremes

State Highs State Lows

Community

WunderPhotos

Upload Photos

1,779,010 photos uploaded!

WunderBlogs® & News

Nearby

Air Quality

  Air Quality AQ Index Pollutant
Not available.

Snow Depth

Station Depth Elevation

Earthquake Activity

City Distance Mag. Time & Date
Minimum magnitude displayed is 2.5.

Coastal Water Temperatures

Place Temperature

Nearby Weather Stations